Time;durP1;ratioP1;P1;durP2;ratioP2;P2;SDS_P1;SDS_P2;PMS_P1;PMS_P2;Temp;Humidity;BMP_temperature;BMP_pressure;BME280_temperature;BME280_humidity;BME280_pressure;Samples;Min_cycle;Max_cycle;Signal;HPM_P1;HPM_P2
2023/02/05 00:01:23;;;;;;;4.30;2.20;;;;;;;-2.64;100.00;101188.44;109304;1253;60877;-83
2023/02/05 00:04:12;;;;;;;6.30;2.30;;;;;;;-2.58;100.00;101190.59;109374;1251;74744;-83
2023/02/05 00:07:00;;;;;;;6.20;2.80;;;;;;;-2.55;100.00;101189.44;109418;1251;69018;-84
2023/02/05 00:09:49;;;;;;;4.10;2.60;;;;;;;-2.53;100.00;101192.03;109316;1254;72107;-84
2023/02/05 00:12:38;;;;;;;5.60;2.30;;;;;;;-2.54;100.00;101189.42;109391;1250;58957;-83
2023/02/05 00:15:26;;;;;;;4.30;2.70;;;;;;;-2.61;100.00;101191.64;109363;1254;59819;-84
2023/02/05 00:18:16;;;;;;;4.80;2.70;;;;;;;-2.62;100.00;101187.26;109200;1251;204504;-83
2023/02/05 00:21:05;;;;;;;6.70;2.70;;;;;;;-2.59;100.00;101187.48;109331;1253;67518;-83
2023/02/05 00:23:54;;;;;;;5.10;2.80;;;;;;;-2.60;100.00;101189.35;109408;1251;72773;-83
2023/02/05 00:26:43;;;;;;;3.70;2.50;;;;;;;-2.58;100.00;101186.03;109378;1251;61410;-85
2023/02/05 00:29:32;;;;;;;3.50;2.20;;;;;;;-2.53;100.00;101184.36;109350;1251;60220;-84
2023/02/05 00:32:21;;;;;;;6.00;2.40;;;;;;;-2.51;100.00;101183.23;109288;1254;74854;-83
2023/02/05 00:35:10;;;;;;;4.50;2.70;;;;;;;-2.53;100.00;101188.95;109410;1251;69565;-83
2023/02/05 00:37:59;;;;;;;5.90;2.70;;;;;;;-2.50;100.00;101182.75;109331;1251;72017;-84
2023/02/05 00:40:48;;;;;;;5.30;2.90;;;;;;;-2.50;100.00;101189.04;109414;1251;58635;-84
2023/02/05 00:43:38;;;;;;;5.40;2.90;;;;;;;-2.51;100.00;101192.56;109387;1251;60976;-82
2023/02/05 00:46:26;;;;;;;4.00;2.50;;;;;;;-2.53;100.00;101191.50;109284;1257;74232;-83
2023/02/05 00:49:15;;;;;;;4.30;2.50;;;;;;;-2.53;100.00;101195.00;109374;1254;67569;-84
2023/02/05 00:52:04;;;;;;;4.50;2.70;;;;;;;-2.49;100.00;101199.20;109315;1251;73077;-83
2023/02/05 00:54:53;;;;;;;7.10;2.90;;;;;;;-2.47;100.00;101199.02;109343;1253;58334;-84
2023/02/05 00:57:42;;;;;;;4.90;2.50;;;;;;;-2.47;100.00;101201.34;109337;1254;59518;-83
2023/02/05 01:00:32;;;;;;;7.00;3.00;;;;;;;-2.48;100.00;101201.61;109334;1251;73704;-84
2023/02/05 01:03:21;;;;;;;6.10;2.80;;;;;;;-2.49;100.00;101201.79;109233;1254;67314;-83
2023/02/05 01:06:10;;;;;;;8.50;3.10;;;;;;;-2.52;100.00;101199.55;109250;1251;72945;-83
2023/02/05 01:08:59;;;;;;;4.90;2.30;;;;;;;-2.51;100.00;101198.04;109232;1254;59162;-84
2023/02/05 01:11:48;;;;;;;6.80;3.20;;;;;;;-2.47;100.00;101196.45;109380;1253;59640;-83
2023/02/05 01:14:37;;;;;;;4.70;3.20;;;;;;;-2.39;100.00;101200.56;109342;1253;74104;-83
2023/02/05 01:17:26;;;;;;;6.30;2.70;;;;;;;-2.38;100.00;101196.33;109383;1251;69260;-84
2023/02/05 01:20:15;;;;;;;5.10;3.00;;;;;;;-2.38;100.00;101192.55;109368;1251;73803;-83
2023/02/05 01:23:04;;;;;;;5.70;3.30;;;;;;;-2.41;100.00;101197.63;109379;1251;58881;-83
2023/02/05 01:25:53;;;;;;;6.70;3.30;;;;;;;-2.39;100.00;101197.14;109218;1253;59581;-83
2023/02/05 01:28:44;;;;;;;6.80;3.40;;;;;;;-2.36;100.00;101196.36;109246;1254;75107;-83
2023/02/05 01:31:33;;;;;;;5.60;3.30;;;;;;;-2.32;100.00;101196.67;109371;1253;69148;-84
2023/02/05 01:34:22;;;;;;;4.60;2.70;;;;;;;-2.32;100.00;101196.94;109274;1251;73166;-83
2023/02/05 01:37:11;;;;;;;6.80;3.10;;;;;;;-2.39;100.00;101197.17;109323;1254;61540;-83
2023/02/05 01:40:00;;;;;;;6.00;3.30;;;;;;;-2.40;100.00;101202.96;109389;1251;61266;-83
2023/02/05 01:42:50;;;;;;;7.80;3.50;;;;;;;-2.35;100.00;101208.33;109370;1252;72621;-84
2023/02/05 01:45:54;;;;;;;6.00;3.00;;;;;;;-2.38;100.00;101204.73;109428;1251;68747;-84
2023/02/05 01:48:44;;;;;;;6.30;3.00;;;;;;;-2.40;100.00;101203.57;109375;1251;72793;-84
2023/02/05 01:51:33;;;;;;;9.00;3.50;;;;;;;-2.41;100.00;101206.16;109187;1252;59985;-84
2023/02/05 01:54:23;;;;;;;4.70;3.20;;;;;;;-2.45;100.00;101211.73;109254;1251;60572;-83
2023/02/05 01:57:16;;;;;;;5.60;2.70;;;;;;;-2.42;100.00;101211.33;109253;1251;74144;-84
2023/02/05 02:00:05;;;;;;;5.10;2.60;;;;;;;-2.43;100.00;101206.40;109099;1253;67929;-83
2023/02/05 02:03:02;;;;;;;6.20;2.90;;;;;;;-2.42;100.00;101208.00;109274;1251;73147;-83
2023/02/05 02:05:50;;;;;;;5.00;2.80;;;;;;;-2.38;100.00;101206.27;109258;1257;59061;-83
2023/02/05 02:08:39;;;;;;;5.10;3.00;;;;;;;-2.38;100.00;101208.08;109368;1251;58355;-84
2023/02/05 02:11:29;;;;;;;8.40;3.20;;;;;;;-2.38;100.00;101207.95;109408;1251;74284;-83
2023/02/05 02:14:18;;;;;;;5.70;3.50;;;;;;;-2.39;100.00;101206.30;109187;1251;67945;-84
2023/02/05 02:17:07;;;;;;;5.70;3.10;;;;;;;-2.40;100.00;101212.57;109223;1253;71403;-84
2023/02/05 02:20:07;;;;;;;7.10;3.20;;;;;;;-2.38;100.00;101217.72;109152;1252;59497;-83
2023/02/05 02:23:32;;;;;;;5.30;3.20;;;;;;;-2.38;100.00;101217.21;109360;1256;59583;-83
2023/02/05 02:26:39;;;;;;;7.90;3.80;;;;;;;-2.37;100.00;101213.86;109153;1252;75059;-83
2023/02/05 02:29:32;;;;;;;8.20;3.10;;;;;;;-2.38;100.00;101211.85;109445;1251;67563;-84
2023/02/05 02:32:35;;;;;;;5.30;3.10;;;;;;;-2.41;100.00;101208.42;109187;1253;71846;-83
2023/02/05 02:35:29;;;;;;;5.30;3.20;;;;;;;-2.40;100.00;101206.21;109165;1257;62226;-83
2023/02/05 02:38:31;;;;;;;5.30;3.50;;;;;;;-2.36;100.00;101207.73;109134;1252;59518;-83
2023/02/05 02:41:29;;;;;;;6.50;3.10;;;;;;;-2.39;100.00;101206.11;109053;1252;74667;-83
2023/02/05 02:44:30;;;;;;;5.80;3.40;;;;;;;-2.42;100.00;101204.79;109040;1254;67310;-84
2023/02/05 02:47:21;;;;;;;7.40;3.10;;;;;;;-2.38;100.00;101203.50;109339;1251;73129;-84
2023/02/05 02:50:13;;;;;;;6.00;2.80;;;;;;;-2.24;100.00;101204.89;109246;1251;59838;-83
2023/02/05 02:53:09;;;;;;;5.60;3.10;;;;;;;-2.27;100.00;101199.92;109354;1253;60325;-83
2023/02/05 02:55:58;;;;;;;6.30;3.30;;;;;;;-2.35;100.00;101204.17;109226;1251;71764;-83
2023/02/05 02:58:49;;;;;;;7.20;3.10;;;;;;;-2.33;100.00;101204.16;109223;1252;69186;-83
2023/02/05 03:01:40;;;;;;;5.60;2.70;;;;;;;-2.29;100.00;101210.84;109042;1253;73364;-84
2023/02/05 03:04:41;;;;;;;5.10;3.10;;;;;;;-2.31;100.00;101212.33;109283;1251;59976;-83
2023/02/05 03:07:34;;;;;;;7.50;3.10;;;;;;;-2.29;100.00;101209.95;109211;1251;60865;-83
2023/02/05 03:10:42;;;;;;;6.20;3.20;;;;;;;-2.26;100.00;101207.27;109219;1252;74145;-83
2023/02/05 03:13:32;;;;;;;7.90;3.30;;;;;;;-2.23;100.00;101209.42;109241;1251;67966;-83
2023/02/05 03:16:23;;;;;;;5.60;3.20;;;;;;;-2.22;100.00;101203.77;109344;1251;72998;-84
2023/02/05 03:19:14;;;;;;;5.80;3.20;;;;;;;-2.21;100.00;101197.36;109319;1251;61163;-83
2023/02/05 03:22:03;;;;;;;6.50;3.00;;;;;;;-2.22;100.00;101203.16;109347;1253;59044;-83
2023/02/05 03:24:52;;;;;;;5.10;3.50;;;;;;;-2.26;100.00;101207.03;109314;1253;74280;-84
2023/02/05 03:27:41;;;;;;;5.90;3.30;;;;;;;-2.25;100.00;101207.46;109073;1253;67828;-84
2023/02/05 03:30:59;;;;;;;5.10;3.10;;;;;;;-2.25;100.00;101207.17;109273;1253;72838;-84
2023/02/05 03:33:50;;;;;;;7.20;3.20;;;;;;;-2.23;100.00;101210.63;109217;1251;58289;-82
2023/02/05 03:37:04;;;;;;;9.10;4.50;;;;;;;-2.24;100.00;101207.39;109372;1251;59495;-84
2023/02/05 03:40:41;;;;;;;6.90;3.30;;;;;;;-2.25;100.00;101205.40;109314;1253;74910;-82
2023/02/05 03:43:33;;;;;;;7.20;3.60;;;;;;;-2.24;100.00;101207.89;109004;1254;67201;-84
2023/02/05 03:46:28;;;;;;;5.60;3.00;;;;;;;-2.26;100.00;101210.36;109143;1253;70271;-82
2023/02/05 03:49:21;;;;;;;6.70;3.30;;;;;;;-2.29;100.00;101209.89;109283;1252;60507;-83
2023/02/05 03:52:16;;;;;;;4.90;3.10;;;;;;;-2.23;100.00;101209.79;109455;1251;61492;-82
2023/02/05 03:55:14;;;;;;;7.40;3.50;;;;;;;-2.23;100.00;101206.79;109047;1253;73134;-82
2023/02/05 03:58:09;;;;;;;8.90;4.10;;;;;;;-2.24;100.00;101207.05;109157;1250;67483;-83
2023/02/05 04:00:58;;;;;;;5.30;3.00;;;;;;;-2.23;100.00;101208.52;109233;1253;72843;-82
2023/02/05 04:03:47;;;;;;;9.10;4.10;;;;;;;-2.20;100.00;101211.35;109231;1252;59513;-83
2023/02/05 04:06:36;;;;;;;6.70;3.10;;;;;;;-2.20;100.00;101216.73;109143;1253;61063;-83
2023/02/05 04:09:25;;;;;;;6.50;3.40;;;;;;;-2.16;100.00;101219.13;109307;1253;73819;-83
2023/02/05 04:12:16;;;;;;;8.10;3.30;;;;;;;-2.19;100.00;101226.81;109224;1253;69220;-83
2023/02/05 04:15:07;;;;;;;7.30;3.50;;;;;;;-2.21;100.00;101231.53;109233;1253;71596;-83
2023/02/05 04:17:57;;;;;;;4.70;2.90;;;;;;;-2.23;100.00;101231.19;109369;1254;60967;-83
2023/02/05 04:20:47;;;;;;;10.30;3.80;;;;;;;-2.19;100.00;101231.64;109348;1251;60750;-83
2023/02/05 04:23:39;;;;;;;7.10;3.60;;;;;;;-2.16;100.00;101230.41;109423;1251;74322;-84
2023/02/05 04:26:28;;;;;;;6.30;3.00;;;;;;;-2.16;100.00;101230.23;109407;1251;69401;-83
2023/02/05 04:29:23;;;;;;;7.10;3.50;;;;;;;-2.21;100.00;101235.83;109379;1251;73231;-83
2023/02/05 04:32:12;;;;;;;6.20;3.30;;;;;;;-2.20;100.00;101235.11;109245;1252;60316;-83
2023/02/05 04:35:01;;;;;;;10.20;4.20;;;;;;;-2.19;100.00;101241.60;109121;1255;60855;-83
2023/02/05 04:37:50;;;;;;;12.40;4.60;;;;;;;-2.19;100.00;101241.84;109291;1254;72577;-83
2023/02/05 04:40:38;;;;;;;9.00;3.80;;;;;;;-2.14;100.00;101245.73;109248;1251;68143;-83
2023/02/05 04:43:27;;;;;;;4.20;3.10;;;;;;;-2.16;100.00;101249.85;109389;1253;70796;-83
2023/02/05 04:46:15;;;;;;;10.70;3.80;;;;;;;-2.18;100.00;101251.81;109373;1251;58766;-83
2023/02/05 04:49:04;;;;;;;6.50;3.70;;;;;;;-2.18;100.00;101259.54;109412;1251;59361;-83
2023/02/05 04:51:53;;;;;;;8.40;3.70;;;;;;;-2.20;100.00;101263.50;109406;1252;74278;-83
2023/02/05 04:54:42;;;;;;;7.00;3.50;;;;;;;-2.17;100.00;101264.72;109300;1252;68908;-84
2023/02/05 04:57:31;;;;;;;8.20;3.60;;;;;;;-2.11;100.00;101265.79;109327;1252;71088;-83
2023/02/05 05:00:20;;;;;;;7.00;3.70;;;;;;;-2.11;100.00;101265.85;109333;1252;59762;-82
2023/02/05 05:03:08;;;;;;;11.20;4.20;;;;;;;-2.09;100.00;101265.31;109342;1251;59702;-83
2023/02/05 05:06:02;;;;;;;11.10;4.80;;;;;;;-2.05;100.00;101266.62;109363;1252;73943;-83
2023/02/05 05:08:51;;;;;;;14.40;5.90;;;;;;;-2.08;100.00;101271.98;109431;1251;67955;-83
2023/02/05 05:11:39;;;;;;;7.70;4.00;;;;;;;-2.10;100.00;101275.56;109347;1253;72014;-84
2023/02/05 05:14:28;;;;;;;6.00;3.90;;;;;;;-2.07;100.00;101276.56;109353;1252;58964;-83
2023/02/05 05:17:18;;;;;;;9.50;4.40;;;;;;;-2.04;100.00;101279.78;109351;1252;58795;-83
2023/02/05 05:20:08;;;;;;;9.90;4.10;;;;;;;-2.03;100.00;101284.09;109437;1251;74987;-83
2023/02/05 05:22:57;;;;;;;10.30;4.30;;;;;;;-2.05;100.00;101287.02;109369;1251;69408;-83
2023/02/05 05:25:46;;;;;;;7.30;4.40;;;;;;;-2.06;100.00;101288.77;109067;1253;72662;-83
2023/02/05 05:28:35;;;;;;;9.60;4.00;;;;;;;-2.11;100.00;101297.73;109295;1252;59519;-84
2023/02/05 05:31:24;;;;;;;8.30;4.60;;;;;;;-2.11;100.00;101297.10;109430;1251;61189;-84
2023/02/05 05:34:13;;;;;;;7.50;4.70;;;;;;;-2.11;100.00;101300.34;109359;1253;73762;-84
2023/02/05 05:37:02;;;;;;;9.10;3.80;;;;;;;-2.04;100.00;101300.30;109317;1252;69967;-84
2023/02/05 05:46:06;;;;;;;7.30;3.90;;;;;;;-1.99;100.00;101304.04;109321;1253;58212;-83
2023/02/05 05:48:56;;;;;;;10.50;4.20;;;;;;;-2.00;100.00;101306.55;109341;1255;72799;-83
2023/02/05 05:51:48;;;;;;;9.30;4.40;;;;;;;-1.97;100.00;101307.33;109419;1252;69862;-83
2023/02/05 05:54:36;;;;;;;12.40;5.00;;;;;;;-1.94;100.00;101306.98;109255;1253;72661;-83
2023/02/05 05:57:25;;;;;;;7.10;4.10;;;;;;;-1.93;100.00;101302.83;109312;1253;58227;-83
2023/02/05 06:00:14;;;;;;;8.00;4.00;;;;;;;-1.94;100.00;101305.00;109351;1252;60233;-83
2023/02/05 06:03:03;;;;;;;5.70;2.80;;;;;;;-1.91;100.00;101306.33;109347;1252;74283;-82
2023/02/05 06:05:52;;;;;;;9.10;4.00;;;;;;;-1.91;100.00;101311.98;109319;1252;68785;-84
2023/02/05 06:08:41;;;;;;;10.40;4.00;;;;;;;-2.01;100.00;101312.98;109370;1252;72831;-83
2023/02/05 06:11:29;;;;;;;9.20;4.20;;;;;;;-2.01;100.00;101307.39;109355;1251;62586;-84
2023/02/05 06:14:18;;;;;;;8.10;3.50;;;;;;;-1.99;100.00;101311.66;109349;1252;60664;-83
2023/02/05 06:17:07;;;;;;;6.10;3.20;;;;;;;-1.96;100.00;101314.36;109299;1252;71871;-84
2023/02/05 06:19:56;;;;;;;8.10;3.20;;;;;;;-1.94;100.00;101322.52;109379;1251;70204;-83
2023/02/05 06:22:44;;;;;;;7.30;3.70;;;;;;;-1.91;100.00;101325.05;109327;1252;73260;-83
2023/02/05 06:25:34;;;;;;;7.20;3.70;;;;;;;-1.86;100.00;101329.98;109280;1252;59909;-84
2023/02/05 06:28:24;;;;;;;6.20;3.60;;;;;;;-1.81;100.00;101329.61;109252;1253;58412;-83
2023/02/05 06:31:12;;;;;;;5.60;2.80;;;;;;;-1.82;100.00;101331.83;109329;1252;74146;-84
2023/02/05 06:34:01;;;;;;;4.40;3.00;;;;;;;-1.83;100.00;101335.71;109311;1252;66791;-84
2023/02/05 06:36:50;;;;;;;8.60;3.50;;;;;;;-1.81;100.00;101340.83;109195;1251;73488;-84
2023/02/05 06:39:39;;;;;;;8.90;3.60;;;;;;;-1.80;100.00;101337.63;109284;1252;58623;-84
2023/02/05 06:42:28;;;;;;;9.90;3.90;;;;;;;-1.75;100.00;101345.45;109256;1252;59349;-84
2023/02/05 06:45:17;;;;;;;6.10;3.40;;;;;;;-1.74;100.00;101341.70;109262;1252;71809;-84
2023/02/05 06:48:05;;;;;;;7.20;3.50;;;;;;;-1.75;100.00;101348.03;109342;1252;68970;-84
2023/02/05 06:50:55;;;;;;;7.10;3.70;;;;;;;-1.74;100.00;101348.09;109314;1252;71757;-83
2023/02/05 06:53:45;;;;;;;9.60;4.60;;;;;;;-1.74;100.00;101348.56;109314;1253;59042;-84
2023/02/05 06:56:34;;;;;;;9.80;5.50;;;;;;;-1.72;100.00;101347.31;109267;1252;60592;-84
2023/02/05 06:59:23;;;;;;;9.90;4.50;;;;;;;-1.67;100.00;101347.44;109351;1252;72207;-83
2023/02/05 07:02:12;;;;;;;8.10;4.10;;;;;;;-1.59;100.00;101343.64;109380;1253;69096;-84
2023/02/05 07:05:01;;;;;;;7.50;3.70;;;;;;;-1.54;100.00;101346.45;109254;1253;73494;-83
2023/02/05 07:07:49;;;;;;;7.80;5.50;;;;;;;-1.52;100.00;101346.95;109316;1252;58389;-84
2023/02/05 07:10:39;;;;;;;8.50;4.20;;;;;;;-1.45;100.00;101346.12;109282;1252;61405;-83
2023/02/05 07:13:28;;;;;;;8.60;4.10;;;;;;;-1.42;100.00;101345.98;109335;1251;71553;-83
2023/02/05 07:16:17;;;;;;;7.20;3.90;;;;;;;-1.42;100.00;101345.65;109436;1251;69331;-84
2023/02/05 07:19:05;;;;;;;7.00;3.60;;;;;;;-1.37;100.00;101345.23;109197;1253;73215;-84
2023/02/05 07:21:54;;;;;;;11.50;4.80;;;;;;;-1.28;100.00;101343.52;109322;1253;61719;-83
2023/02/05 07:24:46;;;;;;;10.10;4.60;;;;;;;-1.20;100.00;101338.48;109394;1253;59899;-84
2023/02/05 07:27:35;;;;;;;10.70;4.80;;;;;;;-1.13;100.00;101339.74;109352;1252;71988;-84
2023/02/05 07:30:24;;;;;;;10.60;5.10;;;;;;;-1.01;100.00;101340.35;109302;1252;68775;-84
2023/02/05 07:33:12;;;;;;;11.80;5.10;;;;;;;-0.87;100.00;101341.33;109303;1252;72501;-83
2023/02/05 07:36:04;;;;;;;12.80;5.60;;;;;;;-0.74;100.00;101336.61;109290;1252;60363;-84
2023/02/05 07:38:53;;;;;;;17.20;5.40;;;;;;;-0.71;100.00;101339.23;109277;1253;59124;-85
2023/02/05 07:41:42;;;;;;;8.60;4.00;;;;;;;-0.70;100.00;101342.14;109262;1253;73698;-84
2023/02/05 07:44:35;;;;;;;12.10;4.80;;;;;;;-0.74;100.00;101341.61;109187;1253;67744;-84
2023/02/05 07:47:24;;;;;;;9.20;4.70;;;;;;;-0.68;100.00;101345.87;109303;1252;72428;-83
2023/02/05 07:50:14;;;;;;;14.60;4.50;;;;;;;-0.60;100.00;101343.97;109281;1252;60487;-84
2023/02/05 07:53:03;;;;;;;11.30;5.10;;;;;;;-0.50;100.00;101348.33;109303;1252;59368;-83
2023/02/05 07:55:52;;;;;;;11.00;4.40;;;;;;;-0.45;100.00;101350.73;109258;1252;72995;-84
2023/02/05 07:58:41;;;;;;;10.30;4.90;;;;;;;-0.41;100.00;101351.77;109277;1252;66670;-84
2023/02/05 08:01:31;;;;;;;10.50;3.80;;;;;;;-0.38;100.00;101351.77;109366;1252;71072;-85
2023/02/05 08:04:19;;;;;;;19.00;6.00;;;;;;;-0.28;100.00;101352.69;109247;1253;59569;-85
2023/02/05 08:07:11;;;;;;;13.10;5.70;;;;;;;-0.24;100.00;101353.14;109267;1253;61686;-84
2023/02/05 08:10:03;;;;;;;8.70;4.30;;;;;;;-0.21;100.00;101355.19;109188;1253;74164;-83
2023/02/05 08:12:52;;;;;;;9.70;4.60;;;;;;;-0.24;100.00;101358.69;109242;1253;68348;-84
2023/02/05 08:15:41;;;;;;;7.90;4.10;;;;;;;-0.31;100.00;101359.14;109199;1253;71651;-85
2023/02/05 08:18:31;;;;;;;10.80;4.60;;;;;;;-0.36;100.00;101358.89;109246;1253;59894;-84
2023/02/05 08:21:20;;;;;;;8.40;3.80;;;;;;;-0.34;100.00;101363.60;109245;1253;60008;-84
2023/02/05 08:24:09;;;;;;;6.30;3.20;;;;;;;-0.31;100.00;101370.45;109269;1252;73809;-85
2023/02/05 08:26:59;;;;;;;10.10;4.40;;;;;;;-0.34;100.00;101369.91;109301;1252;68073;-85
2023/02/05 08:29:48;;;;;;;5.70;3.50;;;;;;;-0.41;100.00;101374.89;109348;1251;72914;-84
2023/02/05 08:32:37;;;;;;;9.50;4.80;;;;;;;-0.46;100.00;101376.68;109270;1253;62383;-83
2023/02/05 08:35:26;;;;;;;9.30;4.10;;;;;;;-0.43;100.00;101377.39;109107;1252;59033;-85
2023/02/05 08:38:15;;;;;;;6.70;3.60;;;;;;;-0.40;100.00;101383.30;109319;1251;74333;-84
2023/02/05 08:41:11;;;;;;;11.60;4.70;;;;;;;-0.33;100.00;101383.91;109333;1252;69304;-85
2023/02/05 08:44:00;;;;;;;7.70;3.50;;;;;;;-0.26;100.00;101381.23;109173;1253;73072;-84
2023/02/05 08:46:48;;;;;;;8.10;4.20;;;;;;;-0.22;100.00;101384.96;109312;1253;62703;-85
2023/02/05 08:49:38;;;;;;;11.50;4.70;;;;;;;-0.18;100.00;101389.39;109291;1256;59185;-83
2023/02/05 08:52:26;;;;;;;10.90;4.80;;;;;;;-0.15;100.00;101389.77;109325;1252;73702;-85
2023/02/05 08:55:17;;;;;;;8.50;4.10;;;;;;;-0.15;100.00;101394.11;109292;1252;70118;-84
2023/02/05 08:58:05;;;;;;;9.90;4.60;;;;;;;-0.09;100.00;101392.83;109323;1253;73223;-85
2023/02/05 09:01:20;;;;;;;10.70;4.10;;;;;;;-0.06;100.00;101397.63;109292;1253;58941;-85
2023/02/05 09:04:14;;;;;;;8.80;4.20;;;;;;;-0.03;100.00;101405.15;109388;1252;61426;-84
2023/02/05 09:07:03;;;;;;;6.50;4.00;;;;;;;-0.07;100.00;101407.08;109330;1253;73030;-84
2023/02/05 09:09:52;;;;;;;13.50;4.30;;;;;;;-0.11;100.00;101408.80;109143;1253;69179;-84
2023/02/05 09:12:41;;;;;;;8.80;3.60;;;;;;;-0.17;100.00;101404.24;109273;1253;72015;-85
2023/02/05 09:15:31;;;;;;;11.20;4.10;;;;;;;-0.23;100.00;101405.41;109314;1255;60556;-84
2023/02/05 09:18:23;;;;;;;9.40;4.40;;;;;;;-0.26;100.00;101404.52;109328;1252;60224;-85
2023/02/05 09:21:14;;;;;;;8.30;4.50;;;;;;;-0.24;100.00;101402.73;109288;1255;71761;-85
2023/02/05 09:24:03;;;;;;;9.60;4.90;;;;;;;-0.22;100.00;101402.32;109322;1252;69287;-85
2023/02/05 09:26:52;;;;;;;7.80;3.90;;;;;;;-0.24;100.00;101405.55;109119;1253;70523;-86
2023/02/05 09:29:45;;;;;;;11.20;5.30;;;;;;;-0.24;100.00;101407.88;109285;1253;59810;-84
2023/02/05 09:32:36;;;;;;;12.80;5.20;;;;;;;-0.19;100.00;101411.29;109180;1256;61029;-85
2023/02/05 09:35:25;;;;;;;9.50;5.50;;;;;;;-0.19;100.00;101410.52;109358;1252;72824;-86
2023/02/05 09:38:14;;;;;;;11.00;5.00;;;;;;;-0.21;100.00;101411.70;109348;1253;67858;-85
2023/02/05 09:41:25;;;;;;;10.80;4.80;;;;;;;-0.22;100.00;101410.95;109367;1251;72541;-83
2023/02/05 09:44:20;;;;;;;10.20;3.90;;;;;;;-0.17;100.00;101412.60;109130;1252;60985;-83
2023/02/05 09:47:18;;;;;;;9.10;4.70;;;;;;;-0.17;100.00;101412.61;109359;1253;61352;-85
2023/02/05 09:50:28;;;;;;;11.90;4.30;;;;;;;-0.19;100.00;101413.97;109359;1252;72017;-85
2023/02/05 09:53:18;;;;;;;12.00;5.30;;;;;;;-0.21;100.00;101422.05;109422;1251;66571;-84
2023/02/05 09:56:06;;;;;;;15.80;5.70;;;;;;;-0.23;100.00;101425.73;109234;1251;72571;-84
2023/02/05 09:58:56;;;;;;;11.30;5.60;;;;;;;-0.22;100.00;101427.77;109077;1257;60473;-86
2023/02/05 10:02:02;;;;;;;9.50;5.30;;;;;;;-0.21;100.00;101427.96;109174;1252;60283;-85
2023/02/05 10:04:56;;;;;;;7.80;4.30;;;;;;;-0.21;100.00;101432.46;109191;1252;71799;-85
2023/02/05 10:08:02;;;;;;;7.80;4.10;;;;;;;-0.21;100.00;101433.71;109331;1253;66585;-84
2023/02/05 10:10:50;;;;;;;9.40;5.10;;;;;;;-0.31;100.00;101435.98;109216;1252;72637;-84
2023/02/05 10:13:40;;;;;;;7.50;3.80;;;;;;;-0.34;100.00;101439.50;109308;1253;59952;-85
2023/02/05 10:16:36;;;;;;;11.50;5.40;;;;;;;-0.32;100.00;101439.85;109379;1251;60314;-84
2023/02/05 10:19:37;;;;;;;12.40;5.00;;;;;;;-0.25;100.00;101437.73;109184;1252;74163;-84
2023/02/05 10:22:28;;;;;;;8.80;4.30;;;;;;;-0.17;100.00;101433.72;109333;1253;68044;-84
2023/02/05 10:25:29;;;;;;;9.70;4.20;;;;;;;-0.06;100.00;101426.73;109092;1253;73114;-84
2023/02/05 10:28:39;;;;;;;8.40;4.70;;;;;;;0.04;100.00;101428.92;109302;1253;59900;-84
2023/02/05 10:31:41;;;;;;;10.50;5.30;;;;;;;0.05;100.00;101428.14;109297;1253;59070;-85
2023/02/05 10:34:43;;;;;;;5.50;3.30;;;;;;;0.07;100.00;101426.73;109198;1251;73201;-86
2023/02/05 10:37:40;;;;;;;10.80;4.40;;;;;;;0.10;100.00;101427.14;109155;1253;68722;-84
2023/02/05 10:40:38;;;;;;;11.80;5.10;;;;;;;0.08;100.00;101425.39;109131;1252;72542;-85
2023/02/05 10:43:39;;;;;;;8.80;4.30;;;;;;;0.13;100.00;101424.75;109139;1252;64706;-85
2023/02/05 10:46:31;;;;;;;8.20;4.00;;;;;;;0.17;100.00;101426.65;109188;1253;60658;-84
2023/02/05 10:49:24;;;;;;;7.80;4.00;;;;;;;0.16;100.00;101426.73;109171;1255;74173;-84
2023/02/05 10:52:13;;;;;;;15.30;5.70;;;;;;;0.17;100.00;101424.39;109346;1252;67120;-85
2023/02/05 10:55:02;;;;;;;11.50;5.30;;;;;;;0.20;100.00;101427.27;109087;1253;73773;-85
2023/02/05 10:57:52;;;;;;;8.80;3.90;;;;;;;0.21;100.00;101428.08;109209;1252;59468;-84
2023/02/05 11:00:40;;;;;;;11.00;4.70;;;;;;;0.24;100.00;101428.03;109183;1253;59436;-85
2023/02/05 11:03:29;;;;;;;13.70;5.80;;;;;;;0.29;100.00;101432.28;109146;1253;72683;-85
2023/02/05 11:06:18;;;;;;;8.60;4.80;;;;;;;0.40;100.00;101431.49;109157;1253;67648;-84
2023/02/05 11:09:25;;;;;;;12.40;4.90;;;;;;;0.46;100.00;101430.79;109167;1252;71857;-85
2023/02/05 11:12:29;;;;;;;9.20;4.30;;;;;;;0.32;100.00;101438.15;109321;1253;61105;-85
2023/02/05 11:15:24;;;;;;;8.40;4.70;;;;;;;0.28;100.00;101439.80;109131;1253;60717;-84
2023/02/05 11:18:21;;;;;;;10.00;5.20;;;;;;;0.29;100.00;101436.64;109349;1255;73460;-84
2023/02/05 11:21:10;;;;;;;10.60;5.00;;;;;;;0.35;100.00;101433.89;109332;1252;66625;-84
2023/02/05 11:23:59;;;;;;;10.10;4.20;;;;;;;0.42;100.00;101427.60;109115;1251;73492;-85
2023/02/05 11:26:48;;;;;;;11.50;4.60;;;;;;;0.52;100.00;101433.05;109246;1253;58950;-84
2023/02/05 11:29:37;;;;;;;10.00;4.90;;;;;;;0.56;100.00;101437.64;109270;1253;61457;-84
2023/02/05 11:32:35;;;;;;;10.30;4.60;;;;;;;0.55;100.00;101439.73;109130;1253;72631;-84
2023/02/05 11:35:30;;;;;;;11.70;5.00;;;;;;;0.51;100.00;101443.63;109331;1252;69272;-85
2023/02/05 11:38:42;;;;;;;9.20;4.60;;;;;;;0.56;100.00;101438.52;109328;1253;73289;-84
2023/02/05 11:41:46;;;;;;;14.20;5.00;;;;;;;0.60;100.00;101442.16;109188;1253;58651;-84
2023/02/05 11:44:36;;;;;;;14.40;4.90;;;;;;;0.70;100.00;101442.89;109121;1253;59607;-85
2023/02/05 11:47:27;;;;;;;14.60;6.10;;;;;;;0.81;100.00;101440.16;109143;1252;73905;-83
2023/02/05 11:50:26;;;;;;;10.90;5.50;;;;;;;0.94;100.00;101442.95;109251;1253;67847;-84
2023/02/05 11:53:18;;;;;;;10.80;5.30;;;;;;;0.99;100.00;101442.62;109182;1253;72917;-85
2023/02/05 11:56:09;;;;;;;12.40;5.20;;;;;;;0.99;100.00;101443.52;109346;1252;59169;-85
2023/02/05 11:58:59;;;;;;;14.80;5.90;;;;;;;1.02;100.00;101440.16;109314;1253;59530;-85
2023/02/05 12:01:48;;;;;;;12.60;5.40;;;;;;;1.13;100.00;101442.05;109288;1253;75582;-86
2023/02/05 12:04:43;;;;;;;13.00;6.20;;;;;;;1.13;100.00;101444.74;109238;1251;69635;-85
2023/02/05 12:07:43;;;;;;;16.90;6.70;;;;;;;1.04;100.00;101445.29;109191;1253;72738;-86
2023/02/05 12:11:09;;;;;;;10.30;4.90;;;;;;;1.03;100.00;101449.16;109194;1253;59045;-86
2023/02/05 12:14:06;;;;;;;13.40;5.60;;;;;;;0.96;100.00;101451.53;109388;1253;59326;-85
2023/02/05 12:17:26;;;;;;;17.80;6.80;;;;;;;0.88;100.00;101449.19;109144;1256;72529;-84
2023/02/05 12:20:28;;;;;;;14.50;5.90;;;;;;;0.81;100.00;101453.13;109199;1253;68803;-85
2023/02/05 12:23:30;;;;;;;9.00;4.90;;;;;;;0.77;100.00;101451.26;109204;1253;73242;-85
2023/02/05 12:26:22;;;;;;;11.10;4.90;;;;;;;0.75;100.00;101453.39;109065;1253;60589;-83
2023/02/05 12:29:33;;;;;;;13.50;5.80;;;;;;;0.66;100.00;101453.98;109165;1253;60211;-84
2023/02/05 12:32:32;;;;;;;13.20;5.40;;;;;;;0.72;100.00;101458.02;109305;1253;74544;-84
2023/02/05 12:35:32;;;;;;;13.40;5.60;;;;;;;0.72;100.00;101461.29;109264;1253;69508;-83
2023/02/05 12:38:40;;;;;;;21.10;7.60;;;;;;;0.68;100.00;101458.40;109330;1252;72843;-84
2023/02/05 12:41:31;;;;;;;18.70;7.80;;;;;;;0.72;100.00;101455.67;109333;1253;59156;-84
2023/02/05 12:44:58;;;;;;;15.30;5.50;;;;;;;0.77;100.00;101456.35;109331;1253;59288;-84
2023/02/05 12:48:00;;;;;;;13.30;6.40;;;;;;;0.80;100.00;101461.14;109275;1253;75475;-84
2023/02/05 12:51:30;;;;;;;13.20;6.40;;;;;;;0.80;100.00;101457.18;109379;1251;69675;-83
2023/02/05 12:54:41;;;;;;;15.10;6.40;;;;;;;0.90;100.00;101461.65;109149;1253;73783;-84
2023/02/05 12:57:37;;;;;;;16.80;7.20;;;;;;;0.94;100.00;101460.13;109329;1253;60888;-84
2023/02/05 13:00:31;;;;;;;18.00;8.30;;;;;;;0.94;100.00;101462.86;109306;1253;60591;-83
2023/02/05 13:03:29;;;;;;;14.60;6.80;;;;;;;0.92;100.00;101455.72;109201;1253;74863;-84
2023/02/05 13:06:50;;;;;;;15.70;5.90;;;;;;;0.94;100.00;101460.95;109296;1253;68956;-83
2023/02/05 13:09:50;;;;;;;14.00;6.30;;;;;;;0.93;100.00;101465.84;109279;1253;71584;-84
2023/02/05 13:12:42;;;;;;;13.00;6.20;;;;;;;0.86;100.00;101468.13;108999;1254;59019;-84